Pagrindinis puslapis
METAR-TAF:

METAR-TAF

Oro uostai :

Džibučio

Džibutis, Džibutis

platuma: 11-33N, ilguma: 043-10E, Aukštis: 49 m

Dabartinis oras

Ataskaita buvo paskelbta 5 valandos ir 21 minutes, ne 16:00 UTC
Vėjas 3 kt iš Rytų
Temperatūra 27°C
Drėgmė 79%
Slėgis 1014 hPa
Matomumas 10 km arba daugiau
Mažai debesys ne aukštis 2000 ft

METAR: HDAM 151600Z 09003KT 9999 FEW020 27/23 Q1014

Laikas: 00:21 (21:21 UTC)

Prognozė

Ataskaita buvo paskelbta 10 valandos ir 21 minutes, ne 11:00 UTC
Prognozė galioja nuo 15 metu 12 UTC su 16 metu 12 UTC
Vėjas 10 kt iš Rytų
Matomumas 10 km arba daugiau
Mažai debesys ne aukštis 2300 ft
Tapsmas
nuo 15 metu 18 UTC su 15 metu 21 UTC
Vėjas 3 kt nuo kintamojo kryptimis
Mažai debesys ne aukštis 2000 ft
Tapsmas
nuo 16 metu 00 UTC su 16 metu 06 UTC
Vėjas kt iš Šiaurės
Išsisklaidę debesys ne aukštis 2000 ft

TAF: HDAM 151100Z 1512/1612 08010KT 9999 FEW023 BECMG 1518/1521 VRB03KT FEW020 BECMG 1600/1606 00000KT SCT020

Orai ataskaitas ir orų prognozės (METAR, TAF).

turimą stotys yra geltonos ir raudonos taškus žemėlapyje.

Perkelti pele per norėdami pamatyti stoties vardą.

Tada spustelėkite, norėdami matyti oro stebėjimo ir prognozės.

Norėdami pakeisti žemėlapį: spustelėkite ant žalios mygtukų su juodo kryžiaus žemyn,; žalią mygtuką su brūkšneliu, jei norite nutolinti; arba žalių rodyklių gretimoms žemėlapius.


METAR-TAF: